createdAt,value
2018-05-29T00:20:48.096Z,4.57
2018-05-29T00:40:30.438Z,4.70
2018-05-29T01:00:14.504Z,4.80
2018-05-29T01:19:58.262Z,5.17
2018-05-29T01:39:41.623Z,4.80
2018-05-29T01:59:24.444Z,5.27
2018-05-29T02:19:07.479Z,5.00
2018-05-29T02:38:50.929Z,4.90
2018-05-29T02:58:33.042Z,4.60
2018-05-29T03:18:15.271Z,4.70
2018-05-29T03:37:58.991Z,4.97
2018-05-29T03:57:42.787Z,4.17
2018-05-29T04:17:25.521Z,4.17
2018-05-29T04:37:07.429Z,3.40
2018-05-29T04:56:51.187Z,3.80
2018-05-29T05:16:34.424Z,3.67
2018-05-29T05:36:17.280Z,3.70
2018-05-29T05:56:00.115Z,3.10
2018-05-29T06:15:43.157Z,3.00
2018-05-29T06:35:26.301Z,2.80
2018-05-29T06:55:08.219Z,2.80
2018-05-29T07:14:52.384Z,2.93
2018-05-29T07:34:35.130Z,3.10
2018-05-29T07:54:18.574Z,3.20
2018-05-29T08:14:00.905Z,2.90
2018-05-29T08:33:43.844Z,3.77
2018-05-29T08:53:27.205Z,3.07
2018-05-29T09:13:10.246Z,3.30
2018-05-29T09:32:53.080Z,2.90
2018-05-29T09:52:36.644Z,3.33
2018-05-29T10:12:19.068Z,3.40
2018-05-29T10:32:02.109Z,3.13
2018-05-29T10:51:45.242Z,3.57
2018-05-29T11:11:27.596Z,3.47
2018-05-29T11:31:10.689Z,4.37
2018-05-29T11:50:53.653Z,6.25
2018-05-29T12:10:37.135Z,5.12
2018-05-29T12:30:19.981Z,5.20
2018-05-29T12:50:02.803Z,5.72
2018-05-29T13:09:46.585Z,5.80
2018-05-29T13:29:29.564Z,5.18
2018-05-29T13:49:12.337Z,4.93
2018-05-29T14:08:54.620Z,5.07
2018-05-29T14:28:39.203Z,11.80
2018-05-29T14:33:59.635Z,6.32
2018-05-29T14:36:27.561Z,5.70
2018-05-29T14:59:03.328Z,4.40
2018-05-29T15:18:44.568Z,5.70
2018-05-29T15:38:27.813Z,7.37
2018-05-29T15:58:11.141Z,8.27
2018-05-29T16:17:53.955Z,12.53
2018-05-29T16:34:53.934Z,11.00
2018-05-29T16:54:44.393Z,13.03
2018-05-29T17:14:28.192Z,15.00
2018-05-29T17:34:11.152Z,17.87
2018-05-29T17:53:54.170Z,22.30
2018-05-29T18:13:36.975Z,23.10
2018-05-29T18:33:19.852Z,46.53
2018-05-29T18:53:05.039Z,33.97
2018-05-29T19:12:48.245Z,16.93
2018-05-29T19:32:32.393Z,21.43
2018-05-29T19:52:14.515Z,14.73
2018-05-29T20:11:57.698Z,16.45
2018-05-29T20:31:40.661Z,15.63
2018-05-29T20:51:23.512Z,18.90
2018-05-29T21:11:06.118Z,21.50
2018-05-29T21:30:48.943Z,20.63
2018-05-29T21:50:32.125Z,19.53
2018-05-29T22:10:13.899Z,18.70
2018-05-29T22:29:56.743Z,18.87
2018-05-29T22:49:40.173Z,21.87
2018-05-29T23:09:23.075Z,19.07
2018-05-29T23:29:05.371Z,17.80
2018-05-29T23:48:48.298Z,18.13
